Time;durP1;ratioP1;P1;durP2;ratioP2;P2;SDS_P1;SDS_P2;PMS_P1;PMS_P2;Temp;Humidity;BMP_temperature;BMP_pressure;BME280_temperature;BME280_humidity;BME280_pressure;Samples;Min_cycle;Max_cycle;Signal;HPM_P1;HPM_P2
2020/12/22 00:00:17;;;;;;;3.25;1.67;;;14.00;99.90;;;;;;4995308;28;20268;-92
2020/12/22 00:02:43;;;;;;;3.67;1.75;;;14.10;99.90;;;;;;4995175;28;20181;-92
2020/12/22 00:05:10;;;;;;;6.18;2.08;;;14.10;99.90;;;;;;4998031;28;20196;-91
2020/12/22 00:07:36;;;;;;;4.00;1.83;;;14.00;99.90;;;;;;5015209;28;20239;-91
2020/12/22 00:10:03;;;;;;;3.22;1.73;;;14.00;99.90;;;;;;5014661;28;20238;-92
2020/12/22 00:12:32;;;;;;;7.22;1.70;;;14.00;99.90;;;;;;5014691;28;20212;-91
2020/12/22 00:14:58;;;;;;;5.88;1.58;;;14.00;99.90;;;;;;5015114;28;20169;-91
2020/12/22 00:17:23;;;;;;;4.10;1.42;;;14.00;99.90;;;;;;4998361;28;20537;-93
2020/12/22 00:19:49;;;;;;;2.63;1.27;;;14.00;99.90;;;;;;4982254;28;20221;-92
2020/12/22 00:22:14;;;;;;;5.55;1.50;;;14.00;99.90;;;;;;5015003;28;20181;-93
2020/12/22 00:24:40;;;;;;;6.57;1.98;;;14.00;99.90;;;;;;5014883;28;20172;-92
2020/12/22 00:27:09;;;;;;;6.93;1.63;;;13.90;99.90;;;;;;5014837;28;20199;-92
2020/12/22 00:29:34;;;;;;;2.90;1.73;;;13.90;99.90;;;;;;5014750;28;20219;-93
2020/12/22 00:32:01;;;;;;;4.47;1.27;;;13.90;99.90;;;;;;4988161;28;20510;-94
2020/12/22 00:34:28;;;;;;;4.05;1.70;;;13.90;99.90;;;;;;5015758;28;20627;-93
2020/12/22 00:36:54;;;;;;;14.10;1.65;;;13.90;99.90;;;;;;5000662;28;20173;-92
2020/12/22 00:39:19;;;;;;;4.20;1.20;;;13.90;99.90;;;;;;4978855;28;20192;-93
2020/12/22 00:41:45;;;;;;;3.13;1.10;;;13.90;99.90;;;;;;5006988;28;20220;-92
2020/12/22 00:44:11;;;;;;;2.75;1.40;;;13.90;99.90;;;;;;4994802;28;20185;-92
2020/12/22 00:46:36;;;;;;;2.22;1.10;;;13.80;99.90;;;;;;4996728;28;20180;-93
2020/12/22 00:49:03;;;;;;;3.95;1.30;;;13.90;99.90;;;;;;4997905;28;20199;-93
2020/12/22 00:51:28;;;;;;;4.15;1.20;;;13.90;99.90;;;;;;4998007;28;20189;-94
2020/12/22 00:53:54;;;;;;;8.32;1.20;;;13.90;99.90;;;;;;4981947;28;20682;-90
2020/12/22 00:56:20;;;;;;;3.05;1.55;;;13.80;99.90;;;;;;4994511;28;20185;-93
2020/12/22 00:58:46;;;;;;;5.85;1.30;;;13.80;99.90;;;;;;4997240;28;20181;-92
2020/12/22 01:01:12;;;;;;;7.03;1.77;;;13.80;99.90;;;;;;4994474;28;20216;-93
2020/12/22 01:03:37;;;;;;;7.45;1.85;;;13.90;99.90;;;;;;4994454;28;20199;-91
2020/12/22 01:06:03;;;;;;;8.80;1.88;;;13.80;99.90;;;;;;4978039;28;20189;-92
2020/12/22 01:08:29;;;;;;;4.82;1.40;;;13.90;99.90;;;;;;4990187;28;20215;-93
2020/12/22 01:10:54;;;;;;;2.53;1.30;;;13.80;99.90;;;;;;4994154;28;20236;-92
2020/12/22 01:13:20;;;;;;;4.75;1.60;;;13.80;99.90;;;;;;5009527;28;20177;-93
2020/12/22 01:15:46;;;;;;;5.43;1.48;;;13.80;99.90;;;;;;5014788;28;20177;-91
2020/12/22 01:18:11;;;;;;;7.95;1.25;;;13.70;99.90;;;;;;5015089;28;20537;-93
2020/12/22 01:20:37;;;;;;;3.25;1.45;;;13.70;99.90;;;;;;5001271;28;20173;-92
2020/12/22 01:23:03;;;;;;;4.88;1.30;;;13.80;99.90;;;;;;5016843;28;20185;-93
2020/12/22 01:25:28;;;;;;;4.53;1.10;;;13.80;99.90;;;;;;4982159;28;20200;-92
2020/12/22 01:27:54;;;;;;;4.80;1.10;;;13.80;99.90;;;;;;4993088;28;20200;-92
2020/12/22 01:30:19;;;;;;;6.93;1.23;;;13.80;99.90;;;;;;4977631;28;20217;-93
2020/12/22 01:32:46;;;;;;;3.30;1.08;;;13.80;99.90;;;;;;4977907;28;20227;-91
2020/12/22 01:35:12;;;;;;;3.95;1.42;;;13.80;99.90;;;;;;5010616;28;20173;-93
2020/12/22 01:37:38;;;;;;;9.25;1.00;;;13.80;99.90;;;;;;4997299;28;20173;-92
2020/12/22 01:40:04;;;;;;;3.22;1.30;;;13.80;99.90;;;;;;4998652;28;20270;-91
2020/12/22 01:42:29;;;;;;;1.95;1.20;;;13.80;99.90;;;;;;5016486;28;20199;-92
2020/12/22 01:44:55;;;;;;;9.73;1.40;;;13.80;99.90;;;;;;5006673;28;20176;-90
2020/12/22 01:47:22;;;;;;;1.25;1.00;;;13.90;99.90;;;;;;4997618;28;20243;-93
2020/12/22 01:49:48;;;;;;;5.30;1.35;;;13.90;99.90;;;;;;4997453;28;20231;-91
2020/12/22 01:52:13;;;;;;;3.05;1.13;;;13.90;99.90;;;;;;4981133;28;20208;-93
2020/12/22 01:54:39;;;;;;;2.30;0.98;;;13.80;99.90;;;;;;5013567;28;20185;-93
2020/12/22 01:57:11;;;;;;;1.95;1.20;;;13.80;99.90;;;;;;5013780;28;20227;-92
2020/12/22 01:59:37;;;;;;;4.22;1.73;;;13.80;99.90;;;;;;4998300;28;20179;-93
2020/12/22 02:02:03;;;;;;;3.83;1.60;;;13.80;99.90;;;;;;4981374;28;20207;-92
2020/12/22 02:04:30;;;;;;;1.58;1.48;;;13.80;99.90;;;;;;5013274;28;20219;-92
2020/12/22 02:06:57;;;;;;;5.22;1.85;;;13.80;99.90;;;;;;4993954;28;20173;-92
2020/12/22 02:09:22;;;;;;;2.05;1.25;;;13.80;99.90;;;;;;4994291;28;20197;-91
2020/12/22 02:11:48;;;;;;;5.40;2.00;;;13.80;99.90;;;;;;5013360;28;20188;-93
2020/12/22 02:14:14;;;;;;;3.83;1.80;;;13.80;99.90;;;;;;4993725;28;20174;-93
2020/12/22 02:16:40;;;;;;;6.13;1.40;;;13.80;99.90;;;;;;4993910;28;20170;-92
2020/12/22 02:19:06;;;;;;;5.72;1.90;;;13.80;99.90;;;;;;4997780;28;20181;-92
2020/12/22 02:21:32;;;;;;;4.55;1.60;;;13.80;99.90;;;;;;4999231;28;20645;-92
2020/12/22 02:23:58;;;;;;;3.10;1.83;;;13.80;99.90;;;;;;4985072;28;20205;-92
2020/12/22 02:26:24;;;;;;;4.43;1.70;;;13.80;99.90;;;;;;4984174;28;20169;-92
2020/12/22 02:28:52;;;;;;;1.80;1.70;;;13.80;99.90;;;;;;5000731;28;20745;-92
2020/12/22 02:31:18;;;;;;;3.50;1.52;;;13.90;99.90;;;;;;5002409;28;20268;-91
2020/12/22 02:33:45;;;;;;;2.17;1.45;;;13.80;99.90;;;;;;5020387;28;20161;-92
2020/12/22 02:36:11;;;;;;;1.98;1.70;;;13.90;99.90;;;;;;5007233;28;20153;-92
2020/12/22 02:38:38;;;;;;;3.40;2.00;;;13.80;99.90;;;;;;5023958;28;20160;-90
2020/12/22 02:41:05;;;;;;;1.55;1.45;;;13.90;99.90;;;;;;5022983;28;20172;-90
2020/12/22 02:43:30;;;;;;;3.30;1.50;;;13.90;99.90;;;;;;5034518;28;20196;-90
2020/12/22 02:45:56;;;;;;;3.28;1.30;;;13.90;99.90;;;;;;5019314;28;20181;-89
2020/12/22 02:48:22;;;;;;;2.22;1.75;;;13.90;99.90;;;;;;5001493;28;20208;-89
2020/12/22 02:50:47;;;;;;;3.83;1.40;;;13.90;99.90;;;;;;5001225;28;20191;-90
2020/12/22 02:53:13;;;;;;;7.13;1.90;;;13.80;99.90;;;;;;5001193;28;20172;-90
2020/12/22 02:55:39;;;;;;;2.78;1.50;;;13.80;99.90;;;;;;5017583;28;20176;-90
2020/12/22 02:58:04;;;;;;;2.85;1.70;;;13.80;99.90;;;;;;5001360;28;20234;-90
2020/12/22 03:00:30;;;;;;;3.58;1.30;;;13.80;99.90;;;;;;5000692;28;20176;-90
2020/12/22 03:02:56;;;;;;;3.53;1.20;;;13.90;99.90;;;;;;5016654;28;20179;-91
2020/12/22 03:05:21;;;;;;;1.75;1.65;;;13.80;99.90;;;;;;5000105;28;20177;-91
2020/12/22 03:07:47;;;;;;;2.55;1.70;;;13.90;99.90;;;;;;5017167;28;20197;-90
2020/12/22 03:10:14;;;;;;;2.80;1.77;;;13.90;99.90;;;;;;5016301;28;20219;-90
2020/12/22 03:12:40;;;;;;;2.35;2.15;;;13.90;99.90;;;;;;4999833;28;20184;-91
2020/12/22 03:15:08;;;;;;;2.55;1.70;;;14.00;99.90;;;;;;5016090;28;20173;-90
2020/12/22 03:17:37;;;;;;;2.42;1.90;;;13.90;99.90;;;;;;5016124;28;20173;-90
2020/12/22 03:20:11;;;;;;;2.15;2.05;;;14.00;99.90;;;;;;5017082;28;20224;-90
2020/12/22 03:22:37;;;;;;;4.38;2.17;;;13.90;99.90;;;;;;5017228;28;20157;-90
2020/12/22 03:25:06;;;;;;;3.15;2.05;;;14.00;99.90;;;;;;5016664;28;20176;-90
2020/12/22 03:27:34;;;;;;;3.35;1.88;;;14.00;99.90;;;;;;5016390;28;20622;-89
2020/12/22 03:29:59;;;;;;;4.40;2.50;;;14.00;99.90;;;;;;4999346;28;20224;-90
2020/12/22 03:32:25;;;;;;;4.00;2.15;;;14.00;99.90;;;;;;5015259;28;20184;-89
2020/12/22 03:34:51;;;;;;;3.13;2.40;;;14.00;99.90;;;;;;4999319;28;20181;-89
2020/12/22 03:37:22;;;;;;;2.33;2.22;;;14.00;99.90;;;;;;5016247;28;20180;-89
2020/12/22 03:39:50;;;;;;;3.80;2.08;;;14.00;99.90;;;;;;4996282;28;20550;-89
2020/12/22 03:42:16;;;;;;;2.30;2.00;;;14.10;99.90;;;;;;4979347;28;20189;-89
2020/12/22 03:44:43;;;;;;;2.25;2.03;;;14.10;99.90;;;;;;4999646;28;20165;-88
2020/12/22 03:47:09;;;;;;;1.90;1.80;;;14.00;99.90;;;;;;4997605;28;20170;-90
2020/12/22 03:49:34;;;;;;;2.17;1.85;;;14.00;99.90;;;;;;5017831;28;20205;-90
2020/12/22 03:52:00;;;;;;;3.90;1.88;;;14.00;99.90;;;;;;5017544;28;20196;-89
2020/12/22 03:54:26;;;;;;;3.63;2.20;;;14.00;99.90;;;;;;4996135;28;20197;-89
2020/12/22 03:56:52;;;;;;;4.35;2.00;;;14.00;99.90;;;;;;4996131;28;20174;-90
2020/12/22 03:59:17;;;;;;;1.52;1.42;;;14.10;99.90;;;;;;5014938;28;20177;-91
2020/12/22 04:01:43;;;;;;;1.85;1.75;;;14.00;99.90;;;;;;4998871;28;20181;-92
2020/12/22 04:04:09;;;;;;;3.80;1.50;;;14.00;99.90;;;;;;5015666;28;20345;-89
2020/12/22 04:06:34;;;;;;;2.67;1.50;;;14.00;99.90;;;;;;5028509;28;20176;-88
2020/12/22 04:09:00;;;;;;;1.88;1.70;;;14.00;99.90;;;;;;5033036;28;20254;-89
2020/12/22 04:11:25;;;;;;;1.60;1.50;;;14.00;99.90;;;;;;5021914;28;20193;-90
2020/12/22 04:13:51;;;;;;;3.88;1.88;;;14.00;99.90;;;;;;4982651;28;20231;-90
2020/12/22 04:16:17;;;;;;;1.27;1.20;;;14.00;99.90;;;;;;4982381;28;20172;-90
2020/12/22 04:18:42;;;;;;;1.38;1.38;;;14.00;99.90;;;;;;4998386;28;20632;-90
2020/12/22 04:21:08;;;;;;;1.35;1.25;;;14.00;99.90;;;;;;5015137;28;20173;-91
2020/12/22 04:23:34;;;;;;;1.38;1.30;;;14.00;99.90;;;;;;4998392;28;20584;-89
2020/12/22 04:25:59;;;;;;;3.33;1.45;;;14.00;99.90;;;;;;4998537;28;20176;-91
2020/12/22 04:28:25;;;;;;;2.35;1.20;;;14.00;99.90;;;;;;4998073;28;20215;-90
2020/12/22 04:30:51;;;;;;;1.20;1.20;;;14.00;99.90;;;;;;4998241;28;20184;-92
2020/12/22 04:33:16;;;;;;;1.45;1.20;;;14.00;99.90;;;;;;4998320;28;20176;-90
2020/12/22 04:35:42;;;;;;;6.43;1.00;;;14.00;99.90;;;;;;4982208;28;20169;-90
2020/12/22 04:38:08;;;;;;;2.78;1.00;;;14.00;99.90;;;;;;4994734;28;20177;-92
2020/12/22 04:40:34;;;;;;;1.23;0.93;;;14.00;99.90;;;;;;4986334;28;20649;-91
2020/12/22 04:43:01;;;;;;;1.50;0.88;;;14.10;99.90;;;;;;5014488;28;20276;-91
2020/12/22 04:45:27;;;;;;;1.35;0.82;;;14.00;99.90;;;;;;5014752;28;20676;-91
2020/12/22 04:47:54;;;;;;;0.70;0.68;;;14.10;99.90;;;;;;5017450;28;20169;-91
2020/12/22 04:50:20;;;;;;;5.55;0.80;;;14.10;99.90;;;;;;4998475;28;20201;-91
2020/12/22 04:52:47;;;;;;;0.40;0.40;;;14.10;99.90;;;;;;4998356;28;20196;-91
2020/12/22 04:55:13;;;;;;;2.30;0.60;;;14.10;99.90;;;;;;4998388;28;20176;-92
2020/12/22 04:57:49;;;;;;;1.10;0.85;;;14.20;99.90;;;;;;5015625;28;20191;-93
2020/12/22 05:00:16;;;;;;;1.00;0.43;;;14.10;99.90;;;;;;5014340;28;20173;-92
2020/12/22 05:02:43;;;;;;;0.70;0.52;;;14.10;99.90;;;;;;5015439;28;20176;-91
2020/12/22 05:05:10;;;;;;;0.63;0.50;;;14.20;99.90;;;;;;5014503;28;20191;-92
2020/12/22 05:07:36;;;;;;;1.30;0.70;;;14.00;99.90;;;;;;5015152;28;20625;-91
2020/12/22 05:10:07;;;;;;;1.48;0.60;;;14.00;99.90;;;;;;4997956;28;20703;-91
2020/12/22 05:12:33;;;;;;;1.20;0.80;;;14.00;99.90;;;;;;4997879;28;20200;-91
2020/12/22 05:15:03;;;;;;;2.35;0.60;;;14.00;99.90;;;;;;4998377;28;20243;-90
2020/12/22 05:17:29;;;;;;;1.17;0.60;;;14.00;99.90;;;;;;5014258;28;20164;-92
2020/12/22 05:19:55;;;;;;;1.50;0.70;;;14.00;99.90;;;;;;4997925;28;20180;-90
2020/12/22 05:22:25;;;;;;;0.98;0.45;;;14.00;99.90;;;;;;4997943;28;20179;-90
2020/12/22 05:24:51;;;;;;;1.15;0.60;;;14.10;99.90;;;;;;5015274;28;20212;-90
2020/12/22 05:27:20;;;;;;;4.57;0.73;;;14.00;99.90;;;;;;4994456;28;20212;-91
2020/12/22 05:29:48;;;;;;;1.30;0.60;;;14.00;99.90;;;;;;4994371;28;20221;-90
2020/12/22 05:32:17;;;;;;;0.80;0.55;;;14.00;99.90;;;;;;4994452;28;20689;-91
2020/12/22 05:34:43;;;;;;;1.17;0.52;;;14.10;99.90;;;;;;4995774;28;20219;-91
2020/12/22 05:37:08;;;;;;;1.40;0.63;;;14.10;99.90;;;;;;4994633;28;20527;-91
2020/12/22 05:39:39;;;;;;;2.00;0.75;;;14.20;99.90;;;;;;4981481;28;20177;-92
2020/12/22 05:42:18;;;;;;;1.00;0.65;;;14.10;99.90;;;;;;4981233;28;20234;-91
2020/12/22 05:44:52;;;;;;;3.65;0.70;;;14.20;99.90;;;;;;4997418;28;20168;-91
2020/12/22 05:47:21;;;;;;;2.58;0.60;;;14.20;99.90;;;;;;5013555;28;20207;-90
2020/12/22 05:49:51;;;;;;;1.20;0.70;;;14.10;99.90;;;;;;5013693;28;20554;-90
2020/12/22 05:52:20;;;;;;;0.98;0.73;;;14.20;99.90;;;;;;5000227;28;20185;-91
2020/12/22 05:54:49;;;;;;;1.15;0.85;;;14.20;99.90;;;;;;5001097;28;20172;-92
2020/12/22 05:57:19;;;;;;;1.02;0.65;;;14.20;99.90;;;;;;5017649;28;20636;-90
2020/12/22 05:59:44;;;;;;;1.55;0.60;;;14.20;99.90;;;;;;5017570;28;20176;-90
2020/12/22 06:02:32;;;;;;;1.70;0.70;;;14.20;99.90;;;;;;5017524;28;20652;-90
2020/12/22 06:05:02;;;;;;;0.85;0.68;;;14.20;99.90;;;;;;5018254;28;20207;-91
2020/12/22 06:07:28;;;;;;;1.52;0.80;;;14.30;99.90;;;;;;5017270;28;20165;-90
2020/12/22 06:09:57;;;;;;;2.28;0.82;;;14.30;99.90;;;;;;4997572;28;20193;-90
2020/12/22 06:12:24;;;;;;;7.07;0.70;;;14.40;99.90;;;;;;4997716;28;20570;-91
2020/12/22 06:14:53;;;;;;;2.13;0.65;;;14.30;99.90;;;;;;5024760;28;20174;-90
2020/12/22 06:17:22;;;;;;;0.95;0.60;;;14.20;99.90;;;;;;5021326;28;20185;-89
2020/12/22 06:19:48;;;;;;;4.90;0.50;;;14.20;99.90;;;;;;5020939;28;20158;-89
2020/12/22 06:22:18;;;;;;;0.73;0.38;;;14.20;99.90;;;;;;5005851;28;20185;-91
2020/12/22 06:24:45;;;;;;;2.50;0.68;;;14.20;99.90;;;;;;4998585;28;20180;-91
2020/12/22 06:27:12;;;;;;;1.48;1.38;;;14.20;99.90;;;;;;4997436;28;20182;-92
2020/12/22 06:29:43;;;;;;;0.90;0.90;;;14.20;99.90;;;;;;5016904;28;20196;-90
2020/12/22 06:32:29;;;;;;;0.60;0.60;;;14.20;99.90;;;;;;5024164;28;20172;-91
2020/12/22 06:35:19;;;;;;;1.38;0.57;;;14.10;99.90;;;;;;5022159;28;20176;-91
2020/12/22 06:37:45;;;;;;;1.50;0.50;;;14.10;99.90;;;;;;5016333;28;20180;-91
2020/12/22 06:40:11;;;;;;;0.52;0.30;;;14.10;99.90;;;;;;5000217;28;20188;-90
2020/12/22 06:42:39;;;;;;;0.70;0.50;;;14.20;99.90;;;;;;5000229;28;20195;-92
2020/12/22 06:45:38;;;;;;;0.65;0.43;;;14.10;99.90;;;;;;5017445;28;20168;-91
2020/12/22 06:48:20;;;;;;;1.33;1.02;;;14.00;99.90;;;;;;4967710;28;20189;-92
2020/12/22 06:50:47;;;;;;;1.15;0.70;;;14.00;99.90;;;;;;4998165;28;20253;-92
2020/12/22 06:53:35;;;;;;;1.77;0.70;;;14.10;99.90;;;;;;4982246;28;20177;-92
2020/12/22 06:56:02;;;;;;;5.00;0.75;;;14.10;99.90;;;;;;5010126;28;20184;-92
2020/12/22 06:58:44;;;;;;;2.05;0.68;;;14.20;99.90;;;;;;5001642;28;20267;-93
2020/12/22 07:01:32;;;;;;;1.92;0.70;;;14.20;99.90;;;;;;5000732;28;20176;-94
2020/12/22 07:04:14;;;;;;;2.22;0.68;;;14.30;99.90;;;;;;5015727;28;20168;-92
2020/12/22 07:06:56;;;;;;;1.52;0.65;;;14.20;99.90;;;;;;5016437;28;20179;-93
2020/12/22 07:09:28;;;;;;;1.02;0.60;;;14.10;99.90;;;;;;5016113;28;20207;-93
2020/12/22 07:12:09;;;;;;;3.40;0.60;;;14.20;99.90;;;;;;5016375;28;20215;-93
2020/12/22 07:14:40;;;;;;;1.17;0.40;;;14.20;99.90;;;;;;5016499;28;20614;-93
2020/12/22 07:17:07;;;;;;;1.27;0.43;;;14.20;99.90;;;;;;5016458;28;20172;-92
2020/12/22 07:19:36;;;;;;;3.53;0.82;;;14.10;99.90;;;;;;4983188;28;20173;-93
2020/12/22 07:22:05;;;;;;;1.08;0.65;;;14.20;99.90;;;;;;5016669;28;20180;-92
2020/12/22 07:24:32;;;;;;;1.83;0.52;;;14.20;99.90;;;;;;5016397;28;20268;-93
2020/12/22 07:26:58;;;;;;;2.40;0.57;;;14.20;99.90;;;;;;5016367;28;20219;-92
2020/12/22 07:29:24;;;;;;;3.03;0.70;;;14.20;99.90;;;;;;5015959;28;20193;-93
2020/12/22 07:31:50;;;;;;;1.83;0.75;;;14.20;99.90;;;;;;5016256;28;20189;-92
2020/12/22 07:34:17;;;;;;;2.28;0.70;;;14.20;99.90;;;;;;5002877;28;20177;-93
2020/12/22 07:36:43;;;;;;;0.95;0.70;;;14.20;99.90;;;;;;5019032;28;20172;-92
2020/12/22 07:39:22;;;;;;;2.88;0.70;;;14.10;99.90;;;;;;5015877;28;20185;-94
2020/12/22 07:41:49;;;;;;;2.22;0.77;;;14.10;99.90;;;;;;5015250;28;20645;-95
2020/12/22 07:44:17;;;;;;;0.80;0.80;;;14.10;99.90;;;;;;5016182;28;20529;-93
2020/12/22 07:46:44;;;;;;;1.63;1.05;;;14.00;99.90;;;;;;5015384;28;20254;-94
2020/12/22 07:49:11;;;;;;;2.05;1.30;;;14.00;99.90;;;;;;5016472;28;20245;-94
2020/12/22 07:51:41;;;;;;;2.55;1.23;;;14.00;99.90;;;;;;5015983;28;20173;-94
2020/12/22 07:54:07;;;;;;;6.05;1.27;;;14.00;99.90;;;;;;5016996;28;20168;-94
2020/12/22 07:56:35;;;;;;;1.52;1.13;;;14.00;99.90;;;;;;5005478;28;20186;-93
2020/12/22 07:59:08;;;;;;;1.50;1.05;;;14.00;99.90;;;;;;5002999;28;20180;-95
2020/12/22 08:01:38;;;;;;;0.70;0.70;;;13.90;99.90;;;;;;5016642;28;20222;-95
2020/12/22 08:04:26;;;;;;;2.90;1.00;;;13.80;99.90;;;;;;5016496;28;20230;-94
2020/12/22 08:06:59;;;;;;;4.75;1.00;;;13.80;99.90;;;;;;4999767;28;20208;-93
2020/12/22 08:09:33;;;;;;;3.45;1.00;;;13.70;99.90;;;;;;5016359;28;20196;-94
2020/12/22 08:12:09;;;;;;;0.95;0.60;;;13.70;99.90;;;;;;5015468;28;20177;-94
2020/12/22 08:14:45;;;;;;;9.95;1.70;;;13.70;99.90;;;;;;4996512;28;20173;-96
2020/12/22 08:17:18;;;;;;;2.55;1.00;;;13.70;99.90;;;;;;5010200;28;20263;-96
2020/12/22 08:19:44;;;;;;;2.45;0.88;;;13.80;99.90;;;;;;5015743;28;20652;-95
2020/12/22 08:22:14;;;;;;;3.05;1.00;;;13.70;99.90;;;;;;4999628;28;20183;-93
2020/12/22 08:24:40;;;;;;;3.92;0.77;;;13.70;99.90;;;;;;5014952;28;20574;-94
2020/12/22 08:27:07;;;;;;;0.80;0.63;;;13.70;99.90;;;;;;5016947;28;20168;-93
2020/12/22 08:29:34;;;;;;;4.93;0.75;;;13.60;99.90;;;;;;4998828;28;20199;-95
2020/12/22 08:32:02;;;;;;;2.28;0.70;;;13.60;99.90;;;;;;5015312;28;20177;-93
2020/12/22 08:34:28;;;;;;;4.43;0.80;;;13.60;99.90;;;;;;5015498;28;20541;-95
2020/12/22 08:36:54;;;;;;;3.95;0.73;;;13.50;99.90;;;;;;5015093;28;20196;-93
2020/12/22 08:39:26;;;;;;;2.75;0.47;;;13.50;99.90;;;;;;4999327;28;20641;-94
2020/12/22 08:41:53;;;;;;;4.40;0.52;;;13.60;99.90;;;;;;5036088;28;20207;-94
2020/12/22 08:44:22;;;;;;;1.52;0.68;;;13.50;99.90;;;;;;5021378;28;20161;-94
2020/12/22 08:46:48;;;;;;;1.38;0.50;;;13.50;99.90;;;;;;5022623;28;20160;-92
2020/12/22 08:49:16;;;;;;;2.22;0.70;;;13.50;99.90;;;;;;5001371;28;20695;-93
2020/12/22 08:51:43;;;;;;;3.58;0.60;;;13.50;99.90;;;;;;4998186;28;20205;-94
2020/12/22 08:54:09;;;;;;;2.28;0.70;;;13.50;99.90;;;;;;5014985;28;20202;-93
2020/12/22 08:56:36;;;;;;;2.35;0.40;;;13.50;99.90;;;;;;4995335;28;20176;-94
2020/12/22 08:59:05;;;;;;;3.67;0.60;;;13.50;99.90;;;;;;4995544;28;20180;-95
2020/12/22 09:01:44;;;;;;;2.47;0.50;;;13.60;99.90;;;;;;5018900;28;20146;-93
2020/12/22 09:04:10;;;;;;;3.35;0.60;;;13.70;99.90;;;;;;4995472;28;20188;-93
2020/12/22 09:06:48;;;;;;;3.00;0.93;;;13.80;99.90;;;;;;4986914;28;20169;-93
2020/12/22 09:09:17;;;;;;;5.07;0.98;;;13.80;99.90;;;;;;4978269;28;20209;-93
2020/12/22 09:11:45;;;;;;;4.68;1.33;;;14.00;99.90;;;;;;4995722;28;20188;-93
2020/12/22 09:14:16;;;;;;;2.53;0.75;;;14.10;99.90;;;;;;5014499;28;20195;-93
2020/12/22 09:16:44;;;;;;;3.60;0.80;;;14.40;99.90;;;;;;5014868;28;20173;-94
2020/12/22 09:19:10;;;;;;;4.53;1.00;;;14.50;99.90;;;;;;5015206;28;20181;-91
2020/12/22 09:21:36;;;;;;;2.88;0.80;;;14.60;99.90;;;;;;5014766;28;20622;-93
2020/12/22 09:24:01;;;;;;;1.80;0.70;;;14.70;99.90;;;;;;4998928;28;20192;-95
2020/12/22 09:26:27;;;;;;;1.20;0.47;;;14.80;99.90;;;;;;4997953;28;20169;-94
2020/12/22 09:28:52;;;;;;;5.90;0.60;;;14.80;99.90;;;;;;4998263;28;20530;-94
2020/12/22 09:31:23;;;;;;;1.77;0.65;;;14.70;99.90;;;;;;5000082;28;20177;-93
2020/12/22 09:33:48;;;;;;;3.15;0.93;;;14.70;99.90;;;;;;5015233;28;20214;-94
2020/12/22 09:36:14;;;;;;;3.70;0.70;;;14.60;99.90;;;;;;4998528;28;20200;-94
2020/12/22 09:38:39;;;;;;;4.40;1.10;;;14.50;99.90;;;;;;5012215;28;20584;-69
2020/12/22 09:41:05;;;;;;;2.00;0.63;;;14.70;99.90;;;;;;5014401;28;20243;-94
2020/12/22 09:43:31;;;;;;;6.80;0.70;;;14.80;99.90;;;;;;4997758;28;20653;-94
2020/12/22 09:45:57;;;;;;;1.48;0.50;;;14.80;99.90;;;;;;5014373;28;20177;-94
2020/12/22 09:48:23;;;;;;;7.53;1.15;;;14.70;99.90;;;;;;4997357;28;20199;-94
2020/12/22 09:50:48;;;;;;;1.40;0.60;;;14.50;99.90;;;;;;4998228;28;20208;-94
2020/12/22 09:53:14;;;;;;;3.28;0.85;;;14.30;99.90;;;;;;5025746;28;20626;-92
2020/12/22 09:55:40;;;;;;;5.65;0.90;;;14.30;99.90;;;;;;5013329;28;20181;-90
2020/12/22 09:58:05;;;;;;;5.63;1.00;;;14.20;99.90;;;;;;5019912;28;20161;-89
2020/12/22 10:00:31;;;;;;;2.83;1.02;;;14.20;99.90;;;;;;5000714;28;20191;-93
2020/12/22 10:02:57;;;;;;;5.07;0.90;;;14.30;99.90;;;;;;5018934;28;20177;-94
2020/12/22 10:05:22;;;;;;;3.22;0.82;;;14.40;99.90;;;;;;5007441;28;20185;-94
2020/12/22 10:07:48;;;;;;;3.70;0.80;;;14.30;99.90;;;;;;4996097;28;20223;-94
2020/12/22 10:10:13;;;;;;;6.03;1.40;;;14.30;99.90;;;;;;5001486;28;20607;-93
2020/12/22 10:12:39;;;;;;;8.63;0.77;;;14.20;99.90;;;;;;4998084;28;20173;-93
2020/12/22 10:15:05;;;;;;;3.78;0.80;;;14.40;99.90;;;;;;4986553;28;20189;-94
2020/12/22 10:17:31;;;;;;;3.72;1.23;;;14.50;99.90;;;;;;4989284;28;20181;-91
2020/12/22 10:19:57;;;;;;;3.15;1.10;;;14.50;99.90;;;;;;5020737;28;20191;-92
2020/12/22 10:22:22;;;;;;;3.60;0.85;;;14.60;99.90;;;;;;5019580;28;20173;-93
2020/12/22 10:24:48;;;;;;;2.47;0.77;;;14.90;99.90;;;;;;4984066;28;20196;-92
2020/12/22 10:27:14;;;;;;;4.00;0.93;;;14.90;99.90;;;;;;5012040;28;20188;-94
2020/12/22 10:29:39;;;;;;;1.77;0.80;;;14.90;99.90;;;;;;5002376;28;20205;-93
2020/12/22 10:32:05;;;;;;;2.10;0.73;;;14.80;99.90;;;;;;5002869;28;20185;-93
2020/12/22 10:34:31;;;;;;;2.40;0.85;;;14.80;99.90;;;;;;4997660;28;20169;-94
2020/12/22 10:36:57;;;;;;;4.68;0.80;;;14.80;99.90;;;;;;5018576;28;20181;-92
2020/12/22 10:39:23;;;;;;;5.35;1.25;;;14.60;99.90;;;;;;5018116;28;20183;-94
2020/12/22 10:41:48;;;;;;;1.35;0.60;;;14.40;99.90;;;;;;5018091;28;20262;-94
2020/12/22 10:44:14;;;;;;;7.60;0.60;;;14.30;99.90;;;;;;5001965;28;20177;-93
2020/12/22 10:46:40;;;;;;;1.08;0.90;;;14.40;99.90;;;;;;5018851;28;20172;-94
2020/12/22 10:49:05;;;;;;;2.10;0.75;;;14.70;99.90;;;;;;4986764;28;20200;-92
2020/12/22 10:51:31;;;;;;;1.33;0.47;;;15.00;99.90;;;;;;4986330;28;20181;-93
2020/12/22 10:53:57;;;;;;;1.33;0.57;;;15.20;99.90;;;;;;4987453;28;20205;-94
2020/12/22 10:56:23;;;;;;;1.33;0.43;;;15.30;99.90;;;;;;4984988;28;20193;-93
2020/12/22 10:58:49;;;;;;;4.53;0.60;;;15.60;99.90;;;;;;5003450;28;20184;-93
2020/12/22 11:01:15;;;;;;;2.53;0.38;;;16.00;99.90;;;;;;4987958;28;20200;-92
2020/12/22 11:03:42;;;;;;;1.00;0.35;;;16.70;99.90;;;;;;5020344;28;20177;-93
2020/12/22 11:06:21;;;;;;;3.08;0.70;;;16.50;99.90;;;;;;5017593;28;20177;-93
2020/12/22 11:08:48;;;;;;;1.45;0.60;;;16.20;99.90;;;;;;5023168;28;20192;-91
2020/12/22 11:11:14;;;;;;;0.90;0.30;;;15.50;99.90;;;;;;5037487;28;20204;-92
2020/12/22 11:13:40;;;;;;;3.08;1.00;;;15.40;99.90;;;;;;5035088;28;20184;-92
2020/12/22 11:16:10;;;;;;;2.20;0.60;;;15.40;99.90;;;;;;5002360;28;20173;-93
2020/12/22 11:18:37;;;;;;;0.75;0.55;;;15.40;99.90;;;;;;5001519;28;20169;-93
2020/12/22 11:21:09;;;;;;;2.30;0.88;;;15.10;99.90;;;;;;5018024;28;20532;-92
2020/12/22 11:23:34;;;;;;;3.67;0.80;;;15.90;99.90;;;;;;5020337;28;20259;-93
2020/12/22 11:26:00;;;;;;;6.57;0.98;;;16.70;99.90;;;;;;4999632;28;20181;-93
2020/12/22 11:28:25;;;;;;;1.63;0.63;;;17.50;99.90;;;;;;5018103;28;20211;-93
2020/12/22 11:30:51;;;;;;;7.88;0.73;;;17.70;99.90;;;;;;5013838;28;20255;-93
2020/12/22 11:33:17;;;;;;;5.18;0.80;;;17.80;99.90;;;;;;5015827;28;20177;-93
2020/12/22 11:35:42;;;;;;;3.20;0.82;;;17.60;99.90;;;;;;5006958;28;20176;-93
2020/12/22 11:38:08;;;;;;;1.63;0.70;;;17.90;99.90;;;;;;4995691;28;20177;-93
2020/12/22 11:40:34;;;;;;;3.63;0.90;;;17.80;99.90;;;;;;5002202;28;20188;-93
2020/12/22 11:43:00;;;;;;;3.45;1.17;;;17.50;99.90;;;;;;5015574;28;20625;-94
2020/12/22 11:45:25;;;;;;;3.13;0.75;;;17.30;99.90;;;;;;5015778;28;20169;-94
2020/12/22 11:47:51;;;;;;;2.38;0.80;;;17.30;99.90;;;;;;4999825;28;20534;-94
2020/12/22 11:50:17;;;;;;;2.88;1.13;;;17.10;99.90;;;;;;4981082;28;20196;-94
2020/12/22 11:52:43;;;;;;;3.90;0.98;;;16.80;99.90;;;;;;4998852;28;20189;-94
2020/12/22 11:55:09;;;;;;;5.00;1.10;;;16.50;99.90;;;;;;4996041;28;20181;-94
2020/12/22 11:57:34;;;;;;;8.50;1.30;;;16.30;99.90;;;;;;4979559;28;20180;-93
2020/12/22 12:00:00;;;;;;;5.13;1.23;;;16.20;99.90;;;;;;4987611;28;20180;-95
2020/12/22 12:02:25;;;;;;;4.53;1.42;;;16.40;99.90;;;;;;4999264;28;20173;-94
2020/12/22 12:04:54;;;;;;;4.85;1.40;;;16.50;99.90;;;;;;4998527;28;20259;-93
2020/12/22 12:07:20;;;;;;;4.18;1.13;;;16.60;99.90;;;;;;4986206;28;20177;-94
2020/12/22 12:09:45;;;;;;;3.42;0.90;;;16.50;99.90;;;;;;5001079;28;20194;-95
2020/12/22 12:12:11;;;;;;;4.10;0.93;;;16.30;99.90;;;;;;5001220;28;20170;-94
2020/12/22 12:14:37;;;;;;;2.88;0.95;;;16.00;99.90;;;;;;5000330;28;20173;-94
2020/12/22 12:17:02;;;;;;;4.18;1.30;;;15.80;99.90;;;;;;4983162;28;20177;-95
2020/12/22 12:19:32;;;;;;;6.35;1.00;;;15.90;99.90;;;;;;4982247;28;20671;-94
2020/12/22 12:21:58;;;;;;;6.15;0.98;;;15.70;99.90;;;;;;4983878;28;20204;-95
2020/12/22 12:24:24;;;;;;;2.78;0.90;;;15.80;99.90;;;;;;4996945;28;20627;-94
2020/12/22 12:26:50;;;;;;;4.40;1.20;;;15.70;99.90;;;;;;5004902;28;20192;-94
2020/12/22 12:29:15;;;;;;;6.07;1.00;;;15.80;99.90;;;;;;5017116;28;20193;-93
2020/12/22 12:31:41;;;;;;;7.50;1.10;;;15.90;99.90;;;;;;5016011;28;20753;-93
2020/12/22 12:34:07;;;;;;;1.77;0.77;;;15.90;99.90;;;;;;4982731;28;20172;-93
2020/12/22 12:36:32;;;;;;;5.93;1.33;;;15.90;99.90;;;;;;5015716;28;20219;-92
2020/12/22 12:38:58;;;;;;;3.22;1.05;;;15.60;99.90;;;;;;4998902;28;20176;-93
2020/12/22 12:41:25;;;;;;;7.43;1.55;;;15.70;99.90;;;;;;5014651;28;20238;-93
2020/12/22 12:43:50;;;;;;;5.72;1.30;;;15.80;99.90;;;;;;4996607;28;20178;-92
2020/12/22 12:46:16;;;;;;;4.35;1.20;;;15.80;99.90;;;;;;4979165;28;20178;-93
2020/12/22 12:48:42;;;;;;;3.78;1.45;;;16.00;99.90;;;;;;4981224;28;20662;-91